Time;durP1;ratioP1;P1;durP2;ratioP2;P2;SDS_P1;SDS_P2;PMS_P1;PMS_P2;Temp;Humidity;BMP_temperature;BMP_pressure;BME280_temperature;BME280_humidity;BME280_pressure;Samples;Min_cycle;Max_cycle;Signal;HPM_P1;HPM_P2
2021/08/18 00:01:51;;;;;;;5.15;3.33;;;;;;;15.80;51.63;101183.44;2616070;39;20482;-70
2021/08/18 00:04:21;;;;;;;4.78;3.13;;;;;;;15.82;51.89;101178.59;2652081;36;20092;-70
2021/08/18 00:06:51;;;;;;;5.05;3.25;;;;;;;15.83;51.67;101179.47;2615568;54;20597;-70
2021/08/18 00:09:21;;;;;;;4.90;3.17;;;;;;;15.84;51.95;101178.44;2651692;36;20063;-70
2021/08/18 00:11:51;;;;;;;5.72;3.40;;;;;;;15.84;51.57;101185.84;2615113;54;20062;-70
2021/08/18 00:14:23;;;;;;;4.38;2.83;;;;;;;15.87;52.08;101174.50;2651583;36;20123;-70
2021/08/18 00:16:53;;;;;;;4.63;2.70;;;;;;;15.84;51.45;101180.34;2615139;39;20445;-70
2021/08/18 00:19:23;;;;;;;4.57;3.05;;;;;;;15.85;51.71;101180.19;2651655;36;20159;-70
2021/08/18 00:21:53;;;;;;;4.63;2.90;;;;;;;15.86;51.74;101181.06;2615702;54;20061;-70
2021/08/18 00:24:23;;;;;;;4.78;2.92;;;;;;;15.86;51.68;101176.41;2651431;36;20030;-70
2021/08/18 00:26:53;;;;;;;4.40;2.90;;;;;;;15.85;51.60;101174.66;2614856;54;20045;-70
2021/08/18 00:29:40;;;;;;;5.00;3.25;;;;;;;15.88;52.04;101179.00;2633303;36;20059;-70
2021/08/18 00:32:10;;;;;;;;;;;;;;;15.60;52.41;101169.91;2651799;36;20038;-70
2021/08/18 00:34:40;;;;;;;4.18;2.95;;;;;;;15.81;52.04;101167.72;2615722;54;19950;-70
2021/08/18 00:37:10;;;;;;;4.97;3.30;;;;;;;15.82;51.82;101170.31;2652044;36;20038;-70
2021/08/18 00:39:40;;;;;;;5.15;3.40;;;;;;;15.82;51.50;101170.31;2614734;54;20038;-70
2021/08/18 00:42:10;;;;;;;5.72;3.90;;;;;;;15.83;51.46;101171.19;2651676;36;20041;-71
2021/08/18 00:44:42;;;;;;;5.03;3.38;;;;;;;15.83;52.02;101173.94;2615695;54;20042;-70
2021/08/18 00:47:12;;;;;;;4.65;3.58;;;;;;;15.78;51.98;101168.94;2651123;36;20078;-70
2021/08/18 00:49:43;;;;;;;6.07;3.67;;;;;;;15.80;51.82;101168.78;2614605;54;20038;-70
2021/08/18 00:52:12;;;;;;;6.72;4.10;;;;;;;15.80;52.25;101166.00;2652027;36;20042;-70
2021/08/18 00:54:53;;;;;;;6.53;4.57;;;;;;;15.80;51.70;101172.41;2614992;54;20557;-70
2021/08/18 00:57:23;;;;;;;6.50;4.25;;;;;;;15.80;52.06;101172.41;2651063;36;20035;-70
2021/08/18 00:59:57;;;;;;;6.88;4.22;;;;;;;15.82;52.58;101167.56;2614912;54;20038;-70
2021/08/18 01:02:27;;;;;;;6.72;4.35;;;;;;;15.78;52.16;101168.94;2651301;36;20061;-70
2021/08/18 01:04:57;;;;;;;6.15;4.00;;;;;;;15.79;51.92;101170.66;2615498;54;20038;-70
2021/08/18 01:07:27;;;;;;;5.15;3.50;;;;;;;15.79;52.21;101167.91;2651809;36;20061;-70
2021/08/18 01:09:57;;;;;;;5.70;3.47;;;;;;;15.80;52.43;101168.78;2615214;54;20054;-70
2021/08/18 01:12:28;;;;;;;6.07;3.83;;;;;;;15.81;52.34;101162.19;2652282;36;20055;-70
2021/08/18 01:15:00;;;;;;;6.50;4.07;;;;;;;15.84;52.15;101170.16;2615031;54;20034;-70
2021/08/18 01:17:32;;;;;;;;;;;;;;;15.56;52.85;101169.34;2650186;36;20038;-70
2021/08/18 01:20:02;;;;;;;5.60;3.58;;;;;;;15.78;52.19;101157.88;2615037;54;19946;-70
2021/08/18 01:22:33;;;;;;;8.27;3.65;;;;;;;15.82;52.15;101166.69;2651428;36;20037;-70
2021/08/18 01:25:03;;;;;;;4.85;3.22;;;;;;;15.85;52.18;101176.56;2615196;54;20074;-70
2021/08/18 01:27:33;;;;;;;6.25;3.83;;;;;;;15.85;52.19;101179.31;2651535;36;20026;-70
2021/08/18 01:30:08;;;;;;;7.28;4.32;;;;;;;15.88;52.41;101177.13;2615505;54;20114;-70
2021/08/18 01:32:46;;;;;;;6.28;4.10;;;;;;;15.89;52.62;101173.31;2651431;36;20034;-70
2021/08/18 01:35:22;;;;;;;5.40;3.83;;;;;;;15.90;52.28;101186.06;2615037;54;20042;-70
2021/08/18 01:37:53;;;;;;;6.07;4.00;;;;;;;15.88;52.17;101177.13;2651469;36;20034;-70
2021/08/18 01:40:25;;;;;;;5.97;4.05;;;;;;;15.89;52.11;101181.59;2614814;54;20061;-69
2021/08/18 01:42:55;;;;;;;6.53;4.28;;;;;;;15.90;52.13;101185.22;2651756;36;20046;-70
2021/08/18 01:45:30;;;;;;;5.05;3.58;;;;;;;15.93;52.20;101183.00;2615009;54;20064;-69
2021/08/18 01:48:07;;;;;;;5.25;3.33;;;;;;;15.91;52.18;101181.44;2651139;36;20042;-70
2021/08/18 01:50:41;;;;;;;6.88;4.35;;;;;;;15.92;52.27;101177.66;2614810;54;20030;-70
2021/08/18 01:53:11;;;;;;;6.18;4.00;;;;;;;15.92;51.90;101186.78;2651302;36;20038;-70
2021/08/18 01:55:41;;;;;;;6.75;3.60;;;;;;;15.93;52.47;101176.63;2615044;54;20171;-70
2021/08/18 01:58:11;;;;;;;5.45;3.72;;;;;;;15.93;52.29;101183.00;2652061;36;20034;-70
2021/08/18 02:00:45;;;;;;;5.65;3.72;;;;;;;15.97;52.24;101183.56;2614653;54;20173;-70
2021/08/18 02:03:15;;;;;;;5.72;4.13;;;;;;;15.95;52.35;101185.63;2651047;36;20078;-70
2021/08/18 02:05:46;;;;;;;5.57;3.65;;;;;;;15.94;52.20;101184.75;2616078;54;20049;-70
2021/08/18 02:08:16;;;;;;;5.57;3.88;;;;;;;15.94;52.48;101176.47;2652506;36;20034;-70
2021/08/18 02:10:46;;;;;;;5.88;4.10;;;;;;;15.95;52.21;101169.94;2617131;54;20060;-69
2021/08/18 02:13:17;;;;;;;5.82;3.88;;;;;;;15.96;52.52;101185.47;2655049;36;20038;-69
2021/08/18 02:15:50;;;;;;;6.30;4.30;;;;;;;15.98;52.57;101185.28;2616409;54;20042;-70
2021/08/18 02:18:20;;;;;;;5.72;4.03;;;;;;;15.97;52.25;101191.84;2651656;36;20038;-70
2021/08/18 02:20:50;;;;;;;5.88;4.10;;;;;;;15.96;52.47;101185.47;2615138;54;20166;-69
2021/08/18 02:23:21;;;;;;;5.65;3.42;;;;;;;15.97;52.33;101186.34;2650941;36;20034;-69
2021/08/18 02:25:51;;;;;;;6.05;3.83;;;;;;;15.97;52.34;101189.94;2614308;54;20038;-70
2021/08/18 02:28:21;;;;;;;5.57;3.78;;;;;;;15.98;52.23;101196.31;2650995;36;20062;-70
2021/08/18 02:30:54;;;;;;;5.20;3.35;;;;;;;15.99;52.44;101187.88;2614452;54;20160;-70
2021/08/18 02:33:25;;;;;;;;;;;;;;;15.72;52.75;101196.28;2651227;36;20050;-70
2021/08/18 02:35:55;;;;;;;5.18;3.17;;;;;;;15.95;52.34;101191.13;2613073;54;19973;-69
2021/08/18 02:38:25;;;;;;;5.65;3.53;;;;;;;15.98;51.85;101194.41;2650480;36;20042;-70
2021/08/18 02:40:55;;;;;;;5.50;3.85;;;;;;;15.98;52.20;101196.31;2614629;54;20530;-69
2021/08/18 02:43:25;;;;;;;5.40;3.40;;;;;;;15.97;52.13;101189.94;2650732;36;20174;-69
2021/08/18 02:45:58;;;;;;;5.88;3.72;;;;;;;16.00;51.97;101188.75;2614011;54;20038;-70
2021/08/18 02:48:28;;;;;;;4.95;3.30;;;;;;;15.95;52.13;101186.47;2650515;36;20081;-69
2021/08/18 02:50:58;;;;;;;5.47;3.65;;;;;;;15.96;52.14;101179.94;2614447;39;20305;-70
2021/08/18 02:53:28;;;;;;;5.05;3.38;;;;;;;15.97;52.37;101181.66;2650664;36;20043;-69
2021/08/18 02:55:58;;;;;;;5.85;3.75;;;;;;;15.96;52.02;101185.47;2613891;54;20045;-71
2021/08/18 02:58:28;;;;;;;5.45;3.45;;;;;;;15.97;52.34;101175.28;2650616;36;20038;-71
2021/08/18 03:01:01;;;;;;;6.47;4.03;;;;;;;15.98;52.10;101177.88;2614843;54;20038;-71
2021/08/18 03:03:31;;;;;;;5.72;4.05;;;;;;;15.96;52.56;101171.66;2649560;36;20050;-71
2021/08/18 03:06:01;;;;;;;6.07;4.18;;;;;;;15.96;52.12;101177.19;2613702;54;20042;-71
2021/08/18 03:08:31;;;;;;;5.68;3.95;;;;;;;15.96;51.81;101176.31;2651062;36;20038;-71
2021/08/18 03:11:02;;;;;;;6.28;4.15;;;;;;;15.96;52.24;101177.19;2614941;39;20508;-69
2021/08/18 03:13:32;;;;;;;6.80;4.63;;;;;;;15.96;52.46;101177.19;2650883;36;20147;-69
2021/08/18 03:16:04;;;;;;;7.00;4.75;;;;;;;15.98;52.29;101175.09;2614712;39;20536;-69
2021/08/18 03:18:35;;;;;;;6.10;4.40;;;;;;;15.96;52.17;101184.59;2651331;36;20130;-69
2021/08/18 03:21:05;;;;;;;8.23;5.20;;;;;;;15.96;52.65;101179.06;2615054;46;20141;-71
2021/08/18 03:23:35;;;;;;;7.07;4.97;;;;;;;15.96;52.19;101182.69;2651451;36;20046;-69
2021/08/18 03:26:05;;;;;;;6.30;4.57;;;;;;;15.97;52.37;101178.06;2614711;54;20034;-69
2021/08/18 03:28:35;;;;;;;6.35;4.75;;;;;;;15.97;51.94;101175.28;2651075;36;20047;-69
2021/08/18 03:31:08;;;;;;;6.93;4.90;;;;;;;15.98;52.72;101191.66;2615330;54;20041;-69
2021/08/18 03:33:38;;;;;;;7.25;4.90;;;;;;;15.97;52.16;101187.16;2651554;36;20652;-72
2021/08/18 03:36:08;;;;;;;7.45;5.47;;;;;;;15.97;52.42;101184.41;2614107;54;20133;-69
2021/08/18 03:38:38;;;;;;;6.57;5.00;;;;;;;15.98;52.36;101185.28;2651222;36;20039;-70
2021/08/18 03:41:08;;;;;;;8.30;5.43;;;;;;;15.98;52.55;101182.50;2614417;47;20034;-69
2021/08/18 03:43:38;;;;;;;7.82;5.80;;;;;;;15.98;52.63;101188.91;2651501;36;20671;-71
2021/08/18 03:46:10;;;;;;;6.90;5.32;;;;;;;16.00;53.04;101192.38;2614717;54;20041;-71
2021/08/18 03:48:40;;;;;;;8.07;5.00;;;;;;;15.96;52.63;101185.47;2651028;36;20042;-71
2021/08/18 03:51:10;;;;;;;8.02;5.80;;;;;;;15.99;52.58;101185.13;2615182;54;20034;-70
2021/08/18 03:53:40;;;;;;;7.20;5.05;;;;;;;16.00;52.44;101177.72;2650858;36;20042;-70
2021/08/18 03:56:10;;;;;;;7.15;5.35;;;;;;;15.98;52.70;101186.16;2614346;54;20596;-71
2021/08/18 03:58:40;;;;;;;7.32;5.10;;;;;;;15.99;52.33;101189.78;2651584;36;20149;-71
2021/08/18 04:01:13;;;;;;;7.82;5.75;;;;;;;16.01;52.70;101194.13;2615116;54;20137;-70
2021/08/18 04:03:43;;;;;;;7.32;5.50;;;;;;;15.98;52.45;101185.28;2651318;36;20038;-70
2021/08/18 04:06:13;;;;;;;7.25;5.25;;;;;;;15.99;52.49;101187.00;2614702;54;20042;-71
2021/08/18 04:08:43;;;;;;;7.70;5.50;;;;;;;15.99;52.61;101182.38;2650849;36;20161;-71
2021/08/18 04:11:13;;;;;;;8.52;5.53;;;;;;;16.00;52.60;101177.72;2614851;54;20046;-71
2021/08/18 04:13:43;;;;;;;7.40;5.60;;;;;;;16.01;52.60;101184.97;2651355;36;20042;-71
2021/08/18 04:16:16;;;;;;;8.20;5.35;;;;;;;16.03;52.42;101177.41;2614767;54;20038;-70
2021/08/18 04:18:47;;;;;;;7.70;5.60;;;;;;;16.01;52.47;101182.22;2651240;36;20042;-71
2021/08/18 04:21:17;;;;;;;8.05;5.72;;;;;;;15.99;52.55;101176.84;2614621;54;20035;-70
2021/08/18 04:23:47;;;;;;;8.20;5.30;;;;;;;16.01;52.18;101176.69;2650847;36;20034;-70
2021/08/18 04:26:17;;;;;;;8.32;5.72;;;;;;;16.00;52.28;101186.84;2614034;54;20035;-71
2021/08/18 04:28:47;;;;;;;8.68;5.63;;;;;;;16.01;52.16;101187.72;2651312;36;20569;-71
2021/08/18 04:31:20;;;;;;;9.57;5.85;;;;;;;16.06;52.78;101188.09;2615571;54;20593;-70
2021/08/18 04:33:50;;;;;;;8.15;5.60;;;;;;;16.03;52.49;101185.69;2651226;36;20045;-70
2021/08/18 04:36:20;;;;;;;9.07;6.43;;;;;;;16.02;52.91;101193.09;2614628;39;20450;-70
2021/08/18 04:38:50;;;;;;;8.38;5.65;;;;;;;16.03;52.30;101189.31;2651564;36;20073;-70
2021/08/18 04:41:21;;;;;;;7.85;5.53;;;;;;;16.02;52.59;101186.72;2614403;54;20035;-70
2021/08/18 04:43:51;;;;;;;9.00;6.00;;;;;;;16.01;52.44;101184.97;2651187;36;20042;-71
2021/08/18 04:46:24;;;;;;;8.63;5.75;;;;;;;16.03;53.06;101181.03;2614567;54;20126;-70
2021/08/18 04:48:54;;;;;;;7.97;5.75;;;;;;;15.99;52.61;101187.88;2650451;36;20042;-70
2021/08/18 04:51:24;;;;;;;7.80;5.30;;;;;;;16.00;52.73;101188.75;2614948;54;20038;-71
2021/08/18 04:53:55;;;;;;;8.35;5.82;;;;;;;15.99;52.55;101184.25;2651305;36;20073;-70
2021/08/18 04:56:25;;;;;;;8.40;6.05;;;;;;;16.00;52.75;101181.34;2614376;54;20581;-70
2021/08/18 04:58:55;;;;;;;9.00;6.05;;;;;;;15.99;52.86;101185.13;2651805;36;20574;-70
2021/08/18 05:01:28;;;;;;;8.45;6.07;;;;;;;16.01;52.95;101188.59;2615103;54;20150;-71
2021/08/18 05:03:58;;;;;;;7.82;5.47;;;;;;;15.99;52.70;101184.25;2651334;36;20590;-70
2021/08/18 05:06:29;;;;;;;8.15;5.88;;;;;;;15.99;52.89;101182.38;2614673;54;20034;-71
2021/08/18 05:08:59;;;;;;;9.95;6.15;;;;;;;15.99;52.92;101179.59;2649567;36;20457;-71
2021/08/18 05:11:29;;;;;;;8.45;6.03;;;;;;;15.99;52.87;101179.59;2614250;54;20718;-71
2021/08/18 05:13:59;;;;;;;7.60;5.63;;;;;;;16.00;52.83;101175.81;2650482;36;20040;-71
2021/08/18 05:16:32;;;;;;;9.45;6.97;;;;;;;16.03;53.26;101172.75;2614301;39;20789;-71
2021/08/18 05:19:03;;;;;;;9.02;6.55;;;;;;;16.00;53.01;101173.06;2650953;36;20045;-71
2021/08/18 05:21:33;;;;;;;9.27;6.32;;;;;;;16.02;53.42;101175.66;2614433;54;20054;-71
2021/08/18 05:24:03;;;;;;;8.43;6.22;;;;;;;16.02;53.07;101182.06;2651124;36;20042;-71
2021/08/18 05:26:33;;;;;;;8.90;6.22;;;;;;;16.01;52.65;101183.06;2614432;54;20670;-71
2021/08/18 05:29:03;;;;;;;9.15;6.60;;;;;;;16.05;53.09;101179.00;2650624;36;20099;-71
2021/08/18 05:31:36;;;;;;;8.52;6.22;;;;;;;16.07;53.23;101185.19;2615023;54;20038;-70
2021/08/18 05:34:06;;;;;;;8.90;6.38;;;;;;;16.03;53.10;101185.69;2651061;36;20105;-71
2021/08/18 05:36:36;;;;;;;9.10;6.63;;;;;;;16.07;53.07;101196.22;2613663;54;20082;-70
2021/08/18 05:39:06;;;;;;;10.77;7.05;;;;;;;16.07;53.09;101193.47;2650392;36;20561;-70
2021/08/18 05:41:36;;;;;;;9.25;6.68;;;;;;;16.08;53.40;101197.09;2615107;54;20054;-70
2021/08/18 05:44:07;;;;;;;9.65;6.35;;;;;;;16.09;53.46;101191.41;2650890;36;20030;-70
2021/08/18 05:46:39;;;;;;;9.73;6.25;;;;;;;16.12;52.93;101196.63;2614154;54;20065;-70
2021/08/18 05:49:09;;;;;;;10.00;7.03;;;;;;;16.09;53.00;101196.06;2650525;36;20163;-70
2021/08/18 05:51:39;;;;;;;9.65;7.00;;;;;;;16.11;53.18;101194.91;2614527;54;20050;-71
2021/08/18 05:54:09;;;;;;;9.50;6.47;;;;;;;16.12;53.24;101188.34;2651076;36;20517;-71
2021/08/18 05:56:52;;;;;;;9.43;6.63;;;;;;;16.17;53.25;101185.97;2613778;54;20030;-70
2021/08/18 05:59:22;;;;;;;9.15;6.43;;;;;;;16.14;53.02;101196.44;2650948;36;20035;-70
2021/08/18 06:01:54;;;;;;;10.00;6.57;;;;;;;16.18;53.16;101190.47;2613316;54;20038;-70
2021/08/18 06:04:24;;;;;;;10.15;7.38;;;;;;;16.19;53.27;101194.09;2651294;36;20038;-70
2021/08/18 06:06:54;;;;;;;11.15;7.70;;;;;;;16.20;53.11;101201.34;2613669;54;20042;-70
2021/08/18 06:09:24;;;;;;;10.80;6.65;;;;;;;16.21;53.54;101199.47;2650270;36;20045;-71
2021/08/18 06:11:54;;;;;;;10.13;7.43;;;;;;;16.23;53.03;101194.63;2613924;39;20410;-71
2021/08/18 06:14:24;;;;;;;10.60;7.22;;;;;;;16.23;53.03;101205.66;2650089;36;20041;-71
2021/08/18 06:16:57;;;;;;;12.10;7.60;;;;;;;16.26;53.02;101194.31;2613732;54;20069;-71
2021/08/18 06:19:27;;;;;;;11.88;8.40;;;;;;;16.24;53.30;101194.47;2636435;36;20034;-70
2021/08/18 06:21:59;;;;;;;11.07;6.97;;;;;;;16.27;53.07;101201.56;2614581;54;20034;-70
2021/08/18 06:24:40;;;;;;;11.60;7.50;;;;;;;16.25;53.17;101198.09;2633165;36;20073;-71
2021/08/18 06:27:12;;;;;;;11.85;7.72;;;;;;;16.28;53.29;101206.94;2653459;36;20037;-71
2021/08/18 06:29:43;;;;;;;10.80;7.82;;;;;;;16.29;53.76;101210.56;2615432;54;20030;-70
2021/08/18 06:32:15;;;;;;;12.65;7.93;;;;;;;16.33;53.49;101196.25;2651495;36;20167;-70
2021/08/18 06:34:45;;;;;;;10.93;7.47;;;;;;;16.30;53.35;101201.25;2614015;54;20026;-70
2021/08/18 06:37:15;;;;;;;10.20;6.82;;;;;;;16.33;53.33;101206.44;2651123;36;20461;-70
2021/08/18 06:39:45;;;;;;;10.20;6.95;;;;;;;16.35;53.81;101205.25;2614354;54;20030;-70
2021/08/18 06:42:15;;;;;;;11.02;7.20;;;;;;;16.36;53.28;101201.47;2651422;36;20058;-69
2021/08/18 06:44:48;;;;;;;9.95;6.97;;;;;;;16.38;53.14;101202.19;2614122;54;20034;-70
2021/08/18 06:47:20;;;;;;;9.07;6.78;;;;;;;16.41;53.68;101206.50;2649924;36;20648;-70
2021/08/18 06:49:50;;;;;;;11.43;7.78;;;;;;;16.40;53.52;101215.78;2615062;54;20031;-69
2021/08/18 06:52:20;;;;;;;10.00;7.10;;;;;;;16.42;53.52;101208.22;2653162;36;20039;-70
2021/08/18 06:54:51;;;;;;;9.90;7.03;;;;;;;16.43;53.38;101205.31;2616056;54;20034;-69
2021/08/18 06:57:21;;;;;;;10.20;7.13;;;;;;;16.44;53.57;101200.66;2652405;36;20016;-69
2021/08/18 06:59:51;;;;;;;11.55;7.65;;;;;;;16.46;53.39;101206.88;2615713;54;20121;-69
2021/08/18 07:02:23;;;;;;;10.38;6.85;;;;;;;16.50;53.59;101211.94;2652527;36;20024;-69
2021/08/18 07:04:53;;;;;;;;;;;;;;;16.23;53.82;101213.94;2615884;39;20405;-69
2021/08/18 07:07:23;;;;;;;10.07;6.57;;;;;;;16.44;53.68;101215.31;2652223;36;20415;-69
2021/08/18 07:09:53;;;;;;;11.38;7.00;;;;;;;16.50;53.69;101219.34;2616002;39;20513;-68
2021/08/18 07:12:25;;;;;;;11.15;7.38;;;;;;;16.55;53.65;101222.47;2652313;36;20019;-69
2021/08/18 07:14:55;;;;;;;9.93;6.80;;;;;;;16.51;53.84;101213.69;2614525;54;20125;-70
2021/08/18 07:17:28;;;;;;;10.10;6.80;;;;;;;16.56;53.91;101214.03;2652354;36;20620;-71
2021/08/18 07:19:58;;;;;;;11.20;7.07;;;;;;;16.56;53.26;101215.94;2615257;54;20078;-71
2021/08/18 07:22:28;;;;;;;10.70;7.28;;;;;;;16.57;53.58;101212.16;2652186;36;20513;-70
2021/08/18 07:24:59;;;;;;;11.18;7.38;;;;;;;16.57;53.78;101206.63;2615596;54;20041;-71
2021/08/18 07:27:30;;;;;;;10.18;6.93;;;;;;;16.59;53.96;101212.84;2651894;36;20037;-71
2021/08/18 07:30:00;;;;;;;10.70;6.53;;;;;;;16.60;54.01;101206.31;2615705;54;20038;-70
2021/08/18 07:32:32;;;;;;;10.60;7.43;;;;;;;16.64;53.49;101213.22;2651911;36;20584;-70
2021/08/18 07:35:02;;;;;;;9.55;6.47;;;;;;;16.60;54.15;101211.84;2615343;54;20142;-70
2021/08/18 07:37:32;;;;;;;11.50;7.40;;;;;;;16.64;53.48;101210.47;2651321;36;20038;-70
2021/08/18 07:40:02;;;;;;;10.75;7.28;;;;;;;16.66;53.55;101210.31;2615643;54;20030;-70
2021/08/18 07:42:32;;;;;;;10.75;7.32;;;;;;;16.66;53.71;101211.16;2652348;36;20035;-70
2021/08/18 07:45:02;;;;;;;10.73;7.43;;;;;;;16.68;53.67;101211.88;2615885;39;20564;-70
2021/08/18 07:47:35;;;;;;;9.93;6.53;;;;;;;;;;2651253;36;20054;-70
2021/08/18 07:50:05;;;;;;;9.77;7.07;;;;;;;16.69;53.71;101212.75;2615477;54;20038;-70
2021/08/18 07:52:36;;;;;;;10.63;6.70;;;;;;;16.71;53.84;101210.69;2652113;36;20150;-70
2021/08/18 07:55:08;;;;;;;9.32;6.47;;;;;;;16.74;53.42;101216.75;2615570;54;20034;-70
2021/08/18 07:57:38;;;;;;;9.38;6.90;;;;;;;16.74;53.28;101211.22;2651902;36;20039;-71
2021/08/18 08:00:09;;;;;;;9.43;6.50;;;;;;;16.77;53.91;101219.19;2614901;54;20040;-70
2021/08/18 08:02:47;;;;;;;11.35;6.85;;;;;;;16.81;53.67;101219.72;2651369;36;20034;-71
2021/08/18 08:05:19;;;;;;;9.05;6.70;;;;;;;16.81;53.70;101220.56;2614675;54;20046;-71
2021/08/18 08:07:48;;;;;;;10.25;6.55;;;;;;;16.82;53.64;101219.56;2650806;36;20031;-71
2021/08/18 08:10:18;;;;;;;9.52;6.45;;;;;;;16.83;53.69;101229.56;2614678;54;20648;-71
2021/08/18 08:12:52;;;;;;;9.02;6.47;;;;;;;16.87;54.12;101222.72;2650790;36;20042;-71
2021/08/18 08:15:23;;;;;;;8.77;6.35;;;;;;;16.85;53.79;101216.47;2613981;54;20034;-70
2021/08/18 08:17:55;;;;;;;9.75;6.65;;;;;;;16.89;53.65;101220.63;2650622;36;20053;-70
2021/08/18 08:20:27;;;;;;;8.77;6.00;;;;;;;16.85;53.81;101222.00;2614118;54;20039;-70
2021/08/18 08:22:57;;;;;;;9.35;6.20;;;;;;;16.86;53.87;101228.38;2651235;36;20126;-70
2021/08/18 08:25:27;;;;;;;8.90;6.38;;;;;;;16.89;53.71;101223.38;2614246;54;20030;-70
2021/08/18 08:27:57;;;;;;;8.43;6.10;;;;;;;16.90;53.90;101233.41;2650632;36;20027;-70
2021/08/18 08:30:28;;;;;;;7.97;5.88;;;;;;;16.90;53.97;101227.88;2614604;54;20042;-70
2021/08/18 08:33:00;;;;;;;7.82;5.93;;;;;;;16.92;54.20;101225.81;2651056;36;20037;-70
2021/08/18 08:35:30;;;;;;;;;;;;;;;16.66;54.17;101230.50;2614812;54;20038;-70
2021/08/18 08:38:00;;;;;;;7.82;4.90;;;;;;;16.89;53.60;101230.81;2650758;36;20030;-71
2021/08/18 08:40:31;;;;;;;7.50;5.47;;;;;;;16.93;53.18;101229.47;2614363;54;20591;-71
2021/08/18 08:43:01;;;;;;;7.35;5.35;;;;;;;16.94;54.05;101225.66;2651086;36;20075;-71
2021/08/18 08:45:32;;;;;;;7.05;5.38;;;;;;;16.97;53.72;101229.97;2613888;54;20041;-71
2021/08/18 08:48:05;;;;;;;7.57;5.05;;;;;;;16.98;54.01;101229.81;2650724;36;20031;-71
2021/08/18 08:50:35;;;;;;;;;;;;;;;16.70;54.43;101233.81;2614498;54;20038;-71
2021/08/18 08:53:05;;;;;;;5.70;4.13;;;;;;;16.93;53.95;101235.00;2651357;36;20338;-71
2021/08/18 08:55:35;;;;;;;6.70;4.45;;;;;;;16.98;53.42;101235.34;2614281;54;20161;-71
2021/08/18 08:58:05;;;;;;;6.40;4.22;;;;;;;16.99;54.04;101225.16;2650996;36;20047;-71
2021/08/18 09:00:36;;;;;;;7.00;4.20;;;;;;;17.03;53.85;101240.41;2614399;54;20039;-71
2021/08/18 09:03:15;;;;;;;5.80;4.22;;;;;;;17.06;54.05;101238.16;2651101;36;20034;-71
2021/08/18 09:05:46;;;;;;;5.97;4.03;;;;;;;17.05;53.60;101238.31;2613658;54;20069;-71
2021/08/18 09:08:18;;;;;;;6.30;4.10;;;;;;;17.07;53.78;101239.00;2650779;36;20054;-71
2021/08/18 09:11:06;;;;;;;5.65;4.05;;;;;;;17.09;54.43;101243.34;2614397;54;20160;-71
2021/08/18 09:13:44;;;;;;;4.72;2.95;;;;;;;17.10;53.99;101245.09;2650878;36;20534;-71
2021/08/18 09:16:15;;;;;;;5.45;3.45;;;;;;;17.11;53.84;101240.44;2613602;39;20548;-71
2021/08/18 09:18:49;;;;;;;5.32;3.45;;;;;;;17.14;53.94;101231.78;2650733;36;20064;-71
2021/08/18 09:21:40;;;;;;;5.47;3.78;;;;;;;17.12;53.81;101237.50;2614597;54;20137;-71
2021/08/18 09:24:25;;;;;;;5.68;3.20;;;;;;;17.15;54.17;101233.53;2650673;36;20058;-68
2021/08/18 09:26:57;;;;;;;4.93;3.20;;;;;;;17.17;53.83;101243.41;2614177;54;20633;-69
2021/08/18 09:29:33;;;;;;;4.57;2.83;;;;;;;17.19;53.79;101237.69;2633153;36;20406;-69
2021/08/18 09:32:22;;;;;;;5.25;3.25;;;;;;;17.21;53.88;101235.63;2642765;36;20034;-69
2021/08/18 09:35:08;;;;;;;4.18;3.17;;;;;;;17.23;53.89;101237.19;2614229;54;20031;-71
2021/08/18 09:37:39;;;;;;;4.25;2.75;;;;;;;17.22;53.67;101229.91;2650431;36;20034;-70
2021/08/18 09:40:20;;;;;;;4.30;3.05;;;;;;;17.26;53.43;101231.34;2614178;54;20507;-69
2021/08/18 09:42:50;;;;;;;3.92;2.75;;;;;;;17.26;53.24;101236.00;2651371;36;20441;-70
2021/08/18 09:45:24;;;;;;;3.80;2.60;;;;;;;17.30;53.51;101240.19;2614027;54;20045;-70
2021/08/18 09:47:57;;;;;;;4.43;2.70;;;;;;;17.31;53.41;101234.50;2650476;36;20027;-69
2021/08/18 09:50:33;;;;;;;3.90;2.95;;;;;;;17.35;53.47;101236.94;2614013;54;20034;-69
2021/08/18 09:53:11;;;;;;;4.15;2.78;;;;;;;17.35;53.37;101237.78;2650921;36;20030;-69
2021/08/18 09:55:49;;;;;;;4.13;2.55;;;;;;;17.34;53.13;101232.44;2614323;54;20164;-69
2021/08/18 09:58:34;;;;;;;3.40;2.47;;;;;;;17.39;53.10;101235.53;2650349;36;20565;-70
2021/08/18 10:01:08;;;;;;;3.58;2.05;;;;;;;17.38;53.18;101240.22;2614910;39;20649;-70
2021/08/18 10:03:41;;;;;;;3.80;2.47;;;;;;;17.41;53.43;101241.78;2650618;36;20038;-71
2021/08/18 10:06:14;;;;;;;;;;;;;;;17.14;53.79;101240.06;2614294;54;20042;-69
2021/08/18 10:08:45;;;;;;;;;;;;;;;17.10;53.81;101247.84;2650800;36;20037;-69
2021/08/18 10:11:17;;;;;;;2.63;1.73;;;;;;;17.41;53.23;101245.41;2614628;39;20013;-70
2021/08/18 10:13:47;;;;;;;2.97;2.03;;;;;;;17.45;53.22;101245.97;2650694;36;20490;-69
2021/08/18 10:16:18;;;;;;;3.53;2.25;;;;;;;17.49;53.13;101242.69;2614110;54;20038;-70
2021/08/18 10:18:50;;;;;;;2.92;1.98;;;;;;;17.52;52.72;101247.88;2649962;36;20042;-69
2021/08/18 10:21:28;;;;;;;3.20;2.20;;;;;;;17.52;53.20;101250.66;2614404;54;20038;-69
2021/08/18 10:24:00;;;;;;;3.50;2.00;;;;;;;17.55;53.30;101257.72;2650364;36;20555;-69
2021/08/18 10:26:54;;;;;;;2.97;2.00;;;;;;;17.56;52.78;101245.63;2613969;54;20042;-69
2021/08/18 10:29:33;;;;;;;2.63;1.80;;;;;;;17.58;52.72;101247.19;2650845;36;20431;-69
2021/08/18 10:32:13;;;;;;;2.90;1.70;;;;;;;17.59;52.81;101240.63;2642033;36;20046;-70
2021/08/18 10:34:45;;;;;;;2.85;1.95;;;;;;;17.62;52.83;101231.09;2614072;54;20163;-69
2021/08/18 10:37:24;;;;;;;2.83;1.83;;;;;;;17.65;52.92;101236.31;2649872;36;20037;-69
2021/08/18 10:39:56;;;;;;;3.00;1.90;;;;;;;17.64;52.92;101229.91;2615482;54;20074;-69
2021/08/18 10:42:40;;;;;;;2.92;2.00;;;;;;;17.69;52.57;101230.28;2650281;36;20038;-70
2021/08/18 10:45:41;;;;;;;3.40;1.98;;;;;;;17.70;52.32;101232.00;2614152;54;20050;-70
2021/08/18 10:48:12;;;;;;;2.58;1.58;;;;;;;17.69;52.55;101219.22;2650611;36;20419;-70
2021/08/18 10:50:49;;;;;;;2.30;1.55;;;;;;;17.77;52.35;101220.28;2614117;54;20041;-70
2021/08/18 10:53:43;;;;;;;3.92;1.75;;;;;;;17.77;52.10;101226.66;2650316;36;20061;-70
2021/08/18 10:56:44;;;;;;;2.38;1.45;;;;;;;17.82;52.04;101221.47;2613793;54;20030;-70
2021/08/18 10:59:47;;;;;;;2.55;1.70;;;;;;;17.84;51.81;101207.47;2650164;36;20034;-70
2021/08/18 11:02:32;;;;;;;;;;;;;;;17.60;52.96;101217.47;2650728;36;20065;-70
2021/08/18 11:05:15;;;;;;;2.10;1.50;;;;;;;17.92;52.37;101211.13;2613743;54;19973;-70
2021/08/18 11:08:10;;;;;;;3.10;1.60;;;;;;;17.97;51.75;101210.59;2649623;36;20412;-70
2021/08/18 11:10:45;;;;;;;2.92;1.65;;;;;;;18.04;51.43;101208.88;2613978;54;20045;-70
2021/08/18 11:13:16;;;;;;;2.92;1.67;;;;;;;18.07;51.53;101211.31;2650412;36;20058;-70
2021/08/18 11:15:54;;;;;;;2.88;2.00;;;;;;;18.15;51.43;101207.69;2613984;54;20039;-70
2021/08/18 11:18:25;;;;;;;3.70;2.30;;;;;;;18.15;50.81;101205.78;2650210;36;20027;-70
2021/08/18 11:20:57;;;;;;;3.97;2.65;;;;;;;18.19;51.01;101207.19;2614053;54;20126;-70
2021/08/18 11:23:33;;;;;;;5.13;2.80;;;;;;;18.22;50.33;101211.47;2650512;36;20129;-70
2021/08/18 11:26:09;;;;;;;4.38;2.85;;;;;;;18.27;49.74;101203.53;2613568;54;20121;-70
2021/08/18 11:28:39;;;;;;;5.72;3.00;;;;;;;18.25;50.81;101208.38;2650288;36;20129;-70
2021/08/18 11:31:11;;;;;;;5.30;2.67;;;;;;;18.29;50.69;101213.38;2614150;54;20186;-70
2021/08/18 11:33:41;;;;;;;4.90;2.95;;;;;;;18.27;50.59;101211.84;2650489;36;20034;-70
2021/08/18 11:36:16;;;;;;;4.80;3.10;;;;;;;18.33;50.26;101213.91;2614220;54;20034;-70
2021/08/18 11:38:46;;;;;;;4.30;2.83;;;;;;;18.30;50.28;101212.34;2651124;36;20139;-70
2021/08/18 11:41:19;;;;;;;3.83;2.80;;;;;;;18.35;49.56;101215.47;2614954;54;20043;-70
2021/08/18 11:43:51;;;;;;;4.38;3.08;;;;;;;18.34;50.22;101221.19;2651117;36;20038;-70
2021/08/18 11:46:29;;;;;;;4.65;2.60;;;;;;;18.38;49.95;101220.63;2615384;31;20529;-70
2021/08/18 11:49:10;;;;;;;3.85;2.47;;;;;;;18.38;49.85;101215.09;2650858;36;20137;-70
2021/08/18 11:51:41;;;;;;;5.35;2.80;;;;;;;18.37;50.09;101218.91;2615105;54;20034;-70